Time;durP1;ratioP1;P1;durP2;ratioP2;P2;SDS_P1;SDS_P2;PMS_P1;PMS_P2;Temp;Humidity;BMP_temperature;BMP_pressure;BME280_temperature;BME280_humidity;BME280_pressure;Samples;Min_cycle;Max_cycle;Signal;HPM_P1;HPM_P2
2023/09/07 00:03:19;;;;;;;12.00;7.30;;;;;;;15.74;100.00;101443.02;217802;1288;140816;-89
2023/09/07 00:08:20;;;;;;;14.30;6.50;;;;;;;15.71;99.87;101442.68;218032;1289;139934;-89
2023/09/07 00:13:20;;;;;;;13.50;7.30;;;;;;;15.70;100.00;101445.29;217905;1288;140985;-88
2023/09/07 00:18:20;;;;;;;11.30;7.00;;;;;;;15.70;100.00;101445.22;218209;1288;139309;-89
2023/09/07 00:23:21;;;;;;;13.00;7.10;;;;;;;15.69;100.00;101447.67;217739;1288;141042;-89
2023/09/07 00:28:22;;;;;;;11.50;7.20;;;;;;;15.68;99.94;101446.00;218402;1288;139317;-88
2023/09/07 00:33:22;;;;;;;11.50;6.80;;;;;;;15.66;100.00;101445.27;218399;1288;141335;-89
2023/09/07 00:38:23;;;;;;;11.70;6.60;;;;;;;15.64;100.00;101446.36;218305;1288;139178;-89
2023/09/07 00:43:23;;;;;;;10.90;6.10;;;;;;;15.61;100.00;101452.29;217698;1289;142177;-89
2023/09/07 00:48:24;;;;;;;10.00;6.20;;;;;;;15.59;100.00;101455.05;218341;1288;139741;-88
2023/09/07 00:53:26;;;;;;;10.70;5.90;;;;;;;15.58;100.00;101453.06;217817;1288;140869;-89
2023/09/07 00:58:27;;;;;;;11.50;6.40;;;;;;;15.59;100.00;101453.39;218357;1288;139631;-88
2023/09/07 01:03:28;;;;;;;11.10;6.20;;;;;;;15.74;100.00;101452.46;217800;1290;142104;-89
2023/09/07 01:08:44;;;;;;;9.90;5.70;;;;;;;15.82;100.00;101451.64;218358;1290;139526;-88
2023/09/07 01:13:44;;;;;;;10.60;6.40;;;;;;;15.84;100.00;101453.08;218284;1289;139764;-88
2023/09/07 01:18:45;;;;;;;13.90;6.40;;;;;;;15.96;100.00;101456.95;218458;1288;96241;-88
2023/09/07 01:23:47;;;;;;;13.20;6.20;;;;;;;15.97;100.00;101460.52;217849;1289;141873;-88
2023/09/07 01:28:48;;;;;;;15.40;7.00;;;;;;;15.96;100.00;101456.39;218363;1288;138219;-88
2023/09/07 01:33:49;;;;;;;11.20;6.40;;;;;;;15.93;100.00;101457.25;217885;1289;141442;-88
2023/09/07 01:38:49;;;;;;;13.20;6.80;;;;;;;15.90;100.00;101458.83;218316;1290;139748;-88
2023/09/07 01:43:50;;;;;;;12.60;6.90;;;;;;;15.89;100.00;101461.27;217701;1288;140866;-88
2023/09/07 01:48:50;;;;;;;10.80;6.40;;;;;;;15.86;100.00;101460.14;218371;1288;96920;-89
2023/09/07 01:53:51;;;;;;;11.60;6.60;;;;;;;15.80;100.00;101461.14;217984;1288;141867;-88
2023/09/07 01:58:51;;;;;;;13.80;7.40;;;;;;;15.73;100.00;101458.23;218264;1288;139902;-88
2023/09/07 02:03:52;;;;;;;12.60;6.90;;;;;;;15.67;100.00;101455.35;217993;1288;142076;-89
2023/09/07 02:08:53;;;;;;;13.20;7.00;;;;;;;15.59;100.00;101461.23;218350;1289;139679;-88
2023/09/07 02:13:53;;;;;;;13.20;6.60;;;;;;;15.52;100.00;101462.28;217789;1288;140579;-89
2023/09/07 02:19:03;;;;;;;13.40;7.10;;;;;;;15.43;100.00;101461.19;218507;1289;96035;-89
2023/09/07 02:24:04;;;;;;;16.40;7.10;;;;;;;15.35;100.00;101461.84;217918;1288;250119;-88
2023/09/07 02:29:06;;;;;;;14.10;6.40;;;;;;;15.29;100.00;101456.30;217806;1288;141011;-87
2023/09/07 02:34:07;;;;;;;16.10;6.90;;;;;;;15.23;100.00;101455.36;218328;1290;139885;-88
2023/09/07 02:39:08;;;;;;;12.70;7.20;;;;;;;15.15;100.00;101457.44;217865;1289;141329;-89
2023/09/07 02:44:08;;;;;;;13.60;6.70;;;;;;;15.08;100.00;101459.91;218344;1289;139880;-89
2023/09/07 02:49:09;;;;;;;13.60;7.30;;;;;;;15.03;100.00;101460.17;217904;1289;141296;-88
2023/09/07 02:54:10;;;;;;;14.10;7.50;;;;;;;14.99;100.00;101463.88;218396;1291;139445;-88
2023/09/07 02:59:10;;;;;;;16.00;9.70;;;;;;;14.97;100.00;101469.07;217717;1290;141528;-88
2023/09/07 03:04:11;;;;;;;13.10;8.40;;;;;;;14.95;100.00;101467.88;218492;1290;139839;-88
2023/09/07 03:09:11;;;;;;;13.30;8.20;;;;;;;14.95;100.00;101473.11;217844;1288;141485;-88
2023/09/07 03:14:12;;;;;;;13.00;7.50;;;;;;;14.95;100.00;101468.35;218213;1288;139710;-88
2023/09/07 03:19:12;;;;;;;15.60;9.30;;;;;;;14.94;100.00;101468.73;217973;1288;142328;-88
2023/09/07 03:24:15;;;;;;;15.20;8.80;;;;;;;14.92;100.00;101467.20;218384;1288;139011;-88
2023/09/07 03:29:15;;;;;;;17.00;10.10;;;;;;;14.92;100.00;101460.23;217732;1289;141698;-88
2023/09/07 03:34:16;;;;;;;20.20;10.00;;;;;;;14.91;100.00;101463.54;218414;1288;139355;-88
2023/09/07 03:39:18;;;;;;;18.50;11.00;;;;;;;14.91;100.00;101466.95;217796;1289;141191;-88
2023/09/07 03:44:19;;;;;;;16.50;10.30;;;;;;;14.92;100.00;101463.55;218281;1289;139406;-88
2023/09/07 03:49:19;;;;;;;18.10;10.80;;;;;;;14.91;100.00;101463.39;217910;1288;143571;-88
2023/09/07 03:54:20;;;;;;;15.20;9.40;;;;;;;14.90;100.00;101463.94;218319;1289;141420;-88
2023/09/07 03:59:21;;;;;;;15.60;9.90;;;;;;;14.88;100.00;101468.91;217753;1288;141627;-89
2023/09/07 04:04:21;;;;;;;16.00;10.40;;;;;;;14.84;100.00;101466.48;218115;1288;140253;-88
2023/09/07 04:09:21;;;;;;;14.60;9.00;;;;;;;14.81;100.00;101475.55;217831;1289;141168;-88
2023/09/07 04:14:22;;;;;;;18.30;11.00;;;;;;;14.76;100.00;101478.05;218417;1288;139869;-88
2023/09/07 04:19:22;;;;;;;17.30;11.10;;;;;;;14.72;100.00;101479.66;217972;1290;142624;-88
2023/09/07 04:24:23;;;;;;;17.30;10.10;;;;;;;14.68;100.00;101484.84;218401;1288;139530;-89
2023/09/07 04:29:23;;;;;;;19.30;11.40;;;;;;;14.62;100.00;101487.16;217936;1289;141811;-87
2023/09/07 04:34:24;;;;;;;17.40;10.80;;;;;;;14.59;100.00;101487.59;218233;1288;139603;-88
2023/09/07 04:39:24;;;;;;;18.20;11.40;;;;;;;14.54;100.00;101485.86;217821;1288;142113;-88
2023/09/07 04:44:27;;;;;;;16.70;10.70;;;;;;;14.51;100.00;101489.32;218449;1288;140148;-87
2023/09/07 04:49:28;;;;;;;22.10;12.10;;;;;;;14.48;100.00;101487.94;218095;1288;143037;-87
2023/09/07 04:54:28;;;;;;;18.10;11.10;;;;;;;14.45;100.00;101497.95;218568;1288;140050;-87
2023/09/07 04:59:29;;;;;;;19.50;10.10;;;;;;;14.44;100.00;101498.64;217905;1289;141953;-90
2023/09/07 05:04:30;;;;;;;19.10;11.80;;;;;;;14.43;100.00;101497.36;218524;1288;140679;-88
2023/09/07 05:09:31;;;;;;;17.40;11.30;;;;;;;14.43;100.00;101499.67;217813;1290;140364;-88
2023/09/07 05:14:31;;;;;;;18.60;10.90;;;;;;;14.44;100.00;101503.80;218373;1288;139420;-88
2023/09/07 05:19:31;;;;;;;18.60;11.00;;;;;;;14.46;100.00;101506.27;217972;1288;141982;-88
2023/09/07 05:24:32;;;;;;;17.10;10.40;;;;;;;14.49;100.00;101508.28;218433;1288;139666;-88
2023/09/07 05:29:32;;;;;;;20.70;12.30;;;;;;;14.54;100.00;101507.25;217833;1288;141986;-89
2023/09/07 05:34:32;;;;;;;23.90;15.60;;;;;;;14.60;100.00;101518.40;218280;1288;141481;-88
2023/09/07 05:39:33;;;;;;;25.20;16.90;;;;;;;14.69;100.00;101516.45;217899;1288;141431;-89
2023/09/07 05:44:33;;;;;;;26.70;17.80;;;;;;;14.87;100.00;101516.80;218231;1289;140099;-89
2023/09/07 05:49:34;;;;;;;27.90;18.80;;;;;;;15.04;100.00;101522.77;217796;1288;141019;-88
2023/09/07 05:54:37;;;;;;;29.40;17.70;;;;;;;15.20;100.00;101525.39;218586;1288;139662;-86
2023/09/07 05:59:37;;;;;;;28.10;18.50;;;;;;;15.35;100.00;101524.38;217790;1288;141272;-86
2023/09/07 06:04:38;;;;;;;22.30;15.60;;;;;;;15.54;100.00;101528.03;218098;1289;139474;-87
2023/09/07 06:09:38;;;;;;;21.60;13.80;;;;;;;15.75;100.00;101526.93;217586;1290;141259;-87
2023/09/07 06:14:42;;;;;;;24.20;15.60;;;;;;;16.05;100.00;101528.89;218074;1288;139365;-87
2023/09/07 06:19:43;;;;;;;26.80;15.40;;;;;;;16.30;100.00;101534.05;217510;1288;141517;-88
2023/09/07 06:24:43;;;;;;;23.30;13.50;;;;;;;16.51;100.00;101540.85;218180;1291;140633;-88
2023/09/07 06:29:44;;;;;;;29.80;14.70;;;;;;;16.72;100.00;101538.63;217554;1288;140783;-88
2023/09/07 06:34:44;;;;;;;30.70;13.70;;;;;;;17.09;100.00;101545.49;218262;1291;139540;-88
2023/09/07 06:39:44;;;;;;;25.50;12.40;;;;;;;17.36;100.00;101541.27;217867;1288;141987;-88
2023/09/07 06:44:45;;;;;;;29.40;12.40;;;;;;;17.54;100.00;101541.20;218435;1288;139731;-88
2023/09/07 06:49:45;;;;;;;28.90;12.40;;;;;;;17.70;100.00;101548.85;217785;1290;141890;-86
2023/09/07 06:54:46;;;;;;;25.30;11.90;;;;;;;17.90;100.00;101550.36;218162;1288;139092;-86
2023/09/07 06:59:46;;;;;;;29.80;12.10;;;;;;;18.11;100.00;101552.33;217656;1288;141572;-86
2023/09/07 07:04:47;;;;;;;28.60;12.10;;;;;;;18.34;100.00;101553.32;218372;1288;139344;-88
2023/09/07 07:09:47;;;;;;;22.30;11.50;;;;;;;18.52;100.00;101555.34;217752;1288;141288;-87
2023/09/07 07:14:47;;;;;;;24.40;10.80;;;;;;;18.69;100.00;101559.59;218357;1288;139423;-87
2023/09/07 07:19:48;;;;;;;24.90;9.60;;;;;;;18.80;100.00;101557.23;217743;1288;141487;-86
2023/09/07 07:24:49;;;;;;;23.90;9.30;;;;;;;18.95;100.00;101560.80;218235;1288;96439;-86
2023/09/07 07:29:51;;;;;;;24.30;9.90;;;;;;;19.13;99.47;101565.02;217618;1288;140677;-86
2023/09/07 07:34:52;;;;;;;20.40;9.60;;;;;;;19.39;97.93;101569.02;218146;1288;139100;-87
2023/09/07 07:39:52;;;;;;;15.90;8.80;;;;;;;19.64;96.50;101570.14;217915;1288;141563;-85
2023/09/07 07:44:52;;;;;;;16.20;8.80;;;;;;;19.97;94.30;101578.96;218354;1288;139061;-86
2023/09/07 07:49:53;;;;;;;18.70;8.90;;;;;;;20.21;94.55;101577.71;217846;1289;141598;-87
2023/09/07 07:54:54;;;;;;;16.90;8.20;;;;;;;20.35;94.95;101578.30;218528;1288;96792;-87
2023/09/07 07:59:56;;;;;;;20.80;8.80;;;;;;;20.51;95.43;101582.11;217759;1290;140608;-86
2023/09/07 08:04:57;;;;;;;20.90;8.50;;;;;;;20.74;95.61;101582.89;218283;1288;140215;-87
2023/09/07 08:09:58;;;;;;;17.40;7.80;;;;;;;21.01;94.81;101583.60;217646;1290;140735;-87
2023/09/07 08:14:58;;;;;;;12.60;7.70;;;;;;;21.29;94.17;101584.56;218278;1288;139862;-87
2023/09/07 08:19:59;;;;;;;13.00;7.90;;;;;;;21.58;92.93;101589.89;217835;1288;142878;-87
2023/09/07 08:24:59;;;;;;;16.00;8.40;;;;;;;21.90;91.40;101588.85;218416;1288;96149;-86
2023/09/07 08:30:00;;;;;;;15.30;7.10;;;;;;;22.21;89.16;101589.41;217989;1288;143473;-87
2023/09/07 08:35:01;;;;;;;14.50;7.50;;;;;;;22.55;87.08;101591.67;218441;1289;139429;-87
2023/09/07 08:40:03;;;;;;;13.20;7.10;;;;;;;22.89;86.16;101589.70;217869;1288;140529;-87
2023/09/07 08:45:07;;;;;;;17.80;6.90;;;;;;;23.25;85.94;101577.93;218148;1290;139029;-87
2023/09/07 08:50:10;;;;;;;15.30;6.60;;;;;;;23.65;82.81;101579.88;217722;1288;140836;-87
2023/09/07 08:55:12;;;;;;;22.80;7.00;;;;;;;24.12;81.37;101576.77;218355;1288;105460;-87
2023/09/07 09:00:16;;;;;;;12.10;6.60;;;;;;;24.71;77.73;101574.98;217628;1288;141717;-88
2023/09/07 09:05:19;;;;;;;10.50;6.20;;;;;;;25.33;77.99;101566.05;217858;1289;140153;-88
2023/09/07 09:10:21;;;;;;;13.40;6.60;;;;;;;26.19;75.13;101570.73;217529;1288;142323;-89
2023/09/07 09:15:22;;;;;;;105.70;13.70;;;;;;;26.87;71.49;101579.35;217963;1288;138726;-88
2023/09/07 09:20:25;;;;;;;12.90;6.00;;;;;;;27.65;69.77;101580.79;217723;1293;142425;-88
2023/09/07 09:25:26;;;;;;;15.00;6.10;;;;;;;28.34;67.75;101579.86;218263;1289;96200;-89
2023/09/07 09:30:46;;;;;;;11.80;6.10;;;;;;;29.03;64.15;101580.73;217619;1290;139765;-89
2023/09/07 09:35:56;;;;;;;11.10;6.10;;;;;;;29.71;62.89;101576.87;217989;1291;138567;-89
2023/09/07 09:41:13;;;;;;;14.40;6.20;;;;;;;30.46;60.52;101576.22;217473;1290;139378;-89
2023/09/07 09:46:15;;;;;;;10.70;5.40;;;;;;;31.22;58.73;101573.58;218172;1289;138358;-89
2023/09/07 09:51:17;;;;;;;14.10;5.80;;;;;;;31.69;54.81;101575.54;217594;1288;141491;-89
2023/09/07 09:56:17;;;;;;;11.70;5.70;;;;;;;32.04;53.47;101568.50;218331;1288;138896;-89
2023/09/07 10:01:18;;;;;;;11.50;6.20;;;;;;;32.44;51.74;101564.20;217933;1288;143808;-88
2023/09/07 10:06:22;;;;;;;10.20;4.90;;;;;;;32.50;50.83;101563.24;218142;1288;138958;-88
2023/09/07 10:11:34;;;;;;;9.00;5.40;;;;;;;32.85;50.32;101562.49;217677;1288;139809;-88
2023/09/07 10:16:43;;;;;;;11.10;5.50;;;;;;;33.21;49.27;101558.63;218287;1288;138300;-89
2023/09/07 10:21:44;;;;;;;12.50;5.70;;;;;;;33.19;47.72;101553.11;217683;1288;140594;-86
2023/09/07 10:26:55;;;;;;;9.00;5.80;;;;;;;33.72;47.76;101553.52;218396;1288;138781;-88
2023/09/07 10:31:56;;;;;;;10.30;5.20;;;;;;;34.25;45.48;101549.23;217854;1288;141319;-89
2023/09/07 10:36:56;;;;;;;9.30;4.50;;;;;;;34.39;45.20;101550.07;218501;1288;96872;-89
2023/09/07 10:41:57;;;;;;;8.00;4.70;;;;;;;34.49;43.41;101552.50;217291;1289;140838;-89
2023/09/07 10:46:58;;;;;;;11.40;5.20;;;;;;;34.29;42.54;101541.77;218145;1288;138872;-88
2023/09/07 10:51:58;;;;;;;8.60;5.00;;;;;;;34.24;41.58;101536.91;217816;1288;140440;-89
2023/09/07 10:57:17;;;;;;;11.20;4.70;;;;;;;34.10;42.25;101531.40;217843;1288;451222;-88
2023/09/07 11:02:17;;;;;;;8.40;4.80;;;;;;;34.26;41.46;101540.19;217520;1288;139967;-88
2023/09/07 11:07:17;;;;;;;12.20;4.50;;;;;;;33.97;40.64;101538.55;218331;1288;96854;-88
2023/09/07 11:12:22;;;;;;;8.20;4.90;;;;;;;33.71;40.07;101534.20;217730;1288;141641;-88
2023/09/07 11:17:26;;;;;;;;;;;;;;;33.21;40.64;101534.44;218353;1289;139106;-87
2023/09/07 11:22:26;;;;;;;9.80;5.10;;;;;;;33.35;41.13;101527.04;217927;1288;127320;-87
2023/09/07 11:27:30;;;;;;;10.70;5.20;;;;;;;33.36;40.51;101529.17;218274;1289;138205;-88
2023/09/07 11:32:34;;;;;;;8.80;4.90;;;;;;;33.39;41.96;101521.33;217580;1288;141707;-88
2023/09/07 11:37:35;;;;;;;;;;;;;;;33.55;40.85;101514.77;218550;1291;95840;-88
2023/09/07 11:42:35;;;;;;;9.20;4.80;;;;;;;33.01;40.35;101511.96;217933;1289;128003;-88
2023/09/07 11:47:37;;;;;;;9.90;5.50;;;;;;;32.86;40.29;101512.77;218131;1289;139148;-87
2023/09/07 11:52:37;;;;;;;10.70;5.10;;;;;;;32.71;40.98;101510.53;217902;1289;141601;-88
2023/09/07 11:57:38;;;;;;;10.80;4.80;;;;;;;32.80;40.82;101508.52;218378;1292;139039;-88
2023/09/07 12:02:39;;;;;;;12.80;4.90;;;;;;;32.75;40.79;101509.92;217753;1289;139677;-87
2023/09/07 12:07:40;;;;;;;9.30;4.90;;;;;;;32.63;40.17;101506.11;218518;1291;96036;-86
2023/09/07 12:12:42;;;;;;;9.60;5.00;;;;;;;32.17;40.33;101501.59;217641;1289;141065;-87
2023/09/07 12:17:43;;;;;;;10.10;5.10;;;;;;;32.08;41.05;101495.00;218247;1293;138760;-87
2023/09/07 12:22:43;;;;;;;7.50;4.80;;;;;;;31.99;40.83;101493.70;217594;1292;140303;-87
2023/09/07 12:27:45;;;;;;;12.50;5.30;;;;;;;31.79;40.54;101491.94;218385;1289;139241;-87
2023/09/07 12:32:45;;;;;;;10.00;5.10;;;;;;;31.45;40.63;101490.77;217810;1294;140134;-87
2023/09/07 12:37:46;;;;;;;9.60;4.80;;;;;;;31.24;41.24;101484.92;218339;1291;96325;-87
2023/09/07 12:42:47;;;;;;;8.80;4.50;;;;;;;31.22;41.78;101485.00;217902;1289;139627;-87
2023/09/07 12:47:47;;;;;;;8.60;5.00;;;;;;;31.20;42.36;101480.63;218486;1289;139208;-85
2023/09/07 12:52:48;;;;;;;9.30;4.70;;;;;;;30.99;41.43;101481.30;217762;1289;140402;-86
2023/09/07 12:57:48;;;;;;;11.50;4.80;;;;;;;30.78;41.79;101471.22;218277;1288;138821;-87
2023/09/07 13:02:49;;;;;;;12.70;5.30;;;;;;;30.86;44.17;101466.55;217681;1289;141160;-87
2023/09/07 13:07:49;;;;;;;10.80;5.00;;;;;;;30.99;44.09;101460.09;218516;1288;96485;-86
2023/09/07 13:12:50;;;;;;;13.40;5.10;;;;;;;30.87;42.43;101448.68;217804;1288;141949;-87
2023/09/07 13:17:52;;;;;;;8.20;4.10;;;;;;;30.65;42.12;101447.32;218314;1288;138651;-85
2023/09/07 13:22:53;;;;;;;9.50;4.50;;;;;;;30.64;42.84;101445.68;217867;1289;139839;-87
2023/09/07 13:27:53;;;;;;;12.10;4.70;;;;;;;30.74;43.13;101444.64;218377;1288;138396;-86
2023/09/07 13:32:54;;;;;;;8.10;4.70;;;;;;;30.63;42.81;101444.80;217835;1288;140317;-87
2023/09/07 13:37:55;;;;;;;11.30;4.90;;;;;;;30.54;42.73;101444.52;218322;1288;95976;-88
2023/09/07 13:42:56;;;;;;;11.80;4.90;;;;;;;30.36;43.04;101437.07;217849;1289;141288;-87
2023/09/07 13:47:57;;;;;;;7.70;4.70;;;;;;;30.28;43.68;101435.69;218422;1288;138512;-84
2023/09/07 13:52:58;;;;;;;8.60;3.90;;;;;;;30.06;43.11;101433.12;217861;1289;139831;-86
2023/09/07 13:57:58;;;;;;;8.80;4.50;;;;;;;29.86;43.17;101432.78;218360;1288;139504;-86
2023/09/07 14:02:58;;;;;;;9.00;4.90;;;;;;;29.73;44.32;101431.31;217868;1288;141306;-87
2023/09/07 14:07:59;;;;;;;8.70;4.80;;;;;;;29.63;45.92;101425.41;218385;1288;138166;-86
2023/09/07 14:12:59;;;;;;;11.60;4.90;;;;;;;29.64;46.73;101423.14;218055;1288;140482;-86
2023/09/07 14:18:01;;;;;;;8.90;5.40;;;;;;;29.54;46.40;101419.08;218347;1288;139170;-86
2023/09/07 14:23:05;;;;;;;11.20;5.50;;;;;;;29.55;46.88;101414.96;217851;1288;140630;-85
2023/09/07 14:28:05;;;;;;;8.60;4.50;;;;;;;29.47;45.85;101414.71;218314;1289;139092;-85
2023/09/07 14:33:06;;;;;;;10.30;5.30;;;;;;;29.17;45.53;101415.37;217808;1288;140270;-85
2023/09/07 14:38:06;;;;;;;10.50;4.70;;;;;;;29.07;45.82;101417.86;218375;1288;139188;-85
2023/09/07 14:43:07;;;;;;;9.70;4.70;;;;;;;28.96;46.09;101414.86;217931;1288;141386;-86
2023/09/07 14:48:07;;;;;;;8.30;4.70;;;;;;;28.79;46.07;101413.91;218161;1290;138728;-87
2023/09/07 14:53:08;;;;;;;13.10;5.00;;;;;;;28.61;47.19;101407.89;217475;1288;142502;-87
2023/09/07 14:58:10;;;;;;;13.00;4.80;;;;;;;28.46;47.45;101405.05;218264;1290;138577;-85
2023/09/07 15:03:16;;;;;;;8.30;4.60;;;;;;;28.22;46.22;101401.05;217533;1289;140895;-87
2023/09/07 15:08:17;;;;;;;10.50;5.10;;;;;;;28.11;47.63;101399.05;218093;1288;138826;-86
2023/09/07 15:13:19;;;;;;;11.20;4.90;;;;;;;28.00;47.29;101394.23;217938;1288;141814;-86
2023/09/07 15:18:19;;;;;;;9.60;4.70;;;;;;;27.84;47.83;101389.20;218298;1289;138745;-87
2023/09/07 15:23:20;;;;;;;8.20;4.40;;;;;;;27.68;48.19;101385.38;217736;1288;142235;-86
2023/09/07 15:28:20;;;;;;;11.50;4.70;;;;;;;27.48;48.46;101381.60;218160;1288;138148;-87
2023/09/07 15:33:21;;;;;;;10.60;4.50;;;;;;;27.34;49.08;101378.90;217623;1288;140498;-86
2023/09/07 15:38:23;;;;;;;13.50;5.10;;;;;;;27.25;49.73;101375.48;218175;1288;139069;-86
2023/09/07 15:43:23;;;;;;;12.30;5.00;;;;;;;27.19;49.99;101379.21;218129;1288;140956;-85
2023/09/07 15:48:25;;;;;;;8.90;4.60;;;;;;;27.09;50.00;101373.75;218355;1288;138113;-87
2023/09/07 15:53:26;;;;;;;10.40;4.80;;;;;;;26.95;50.31;101372.08;217719;1288;140297;-86
2023/09/07 15:58:26;;;;;;;8.30;4.60;;;;;;;26.79;51.13;101368.93;218123;1288;138337;-88
2023/09/07 16:03:29;;;;;;;10.70;4.60;;;;;;;26.63;51.91;101365.77;217711;1289;141237;-88
2023/09/07 16:08:30;;;;;;;12.00;4.60;;;;;;;26.47;52.75;101365.75;218394;1288;139361;-87
2023/09/07 16:13:35;;;;;;;11.00;5.20;;;;;;;26.32;52.49;101370.77;217957;1289;141223;-87
2023/09/07 16:18:35;;;;;;;8.50;4.60;;;;;;;26.23;53.03;101375.67;218306;1289;138884;-87
2023/09/07 16:23:45;;;;;;;10.40;4.90;;;;;;;26.11;53.60;101379.92;217914;1289;139964;-88
2023/09/07 16:28:47;;;;;;;12.00;4.90;;;;;;;25.99;54.60;101375.77;218212;1288;139597;-87
2023/09/07 16:33:51;;;;;;;9.10;4.90;;;;;;;25.85;54.68;101372.71;217892;1288;141646;-89
2023/09/07 16:38:52;;;;;;;9.20;4.40;;;;;;;25.68;55.13;101380.27;218270;1289;137083;-88
2023/09/07 16:43:52;;;;;;;7.90;4.20;;;;;;;25.59;55.53;101377.76;217736;1288;139825;-88
2023/09/07 16:49:00;;;;;;;10.30;4.60;;;;;;;25.47;56.19;101374.90;218407;1288;138234;-88
2023/09/07 16:54:03;;;;;;;8.70;4.30;;;;;;;25.29;56.75;101371.91;217558;1288;139559;-87
2023/09/07 16:59:04;;;;;;;8.50;4.80;;;;;;;25.13;57.04;101369.36;217984;1289;140700;-83
2023/09/07 17:04:05;;;;;;;9.20;4.80;;;;;;;24.96;57.45;101366.39;218244;1288;153546;-87
2023/09/07 17:09:06;;;;;;;9.50;4.30;;;;;;;24.80;57.84;101365.31;217749;1288;141179;-86
2023/09/07 17:14:06;;;;;;;9.00;4.80;;;;;;;24.70;58.43;101365.48;218286;1289;138182;-87
2023/09/07 17:19:07;;;;;;;11.90;5.30;;;;;;;24.58;59.10;101359.65;217800;1289;140390;-87
2023/09/07 17:24:08;;;;;;;8.30;4.70;;;;;;;24.43;59.38;101360.36;218512;1290;138580;-88
2023/09/07 17:29:08;;;;;;;11.30;5.50;;;;;;;24.30;59.64;101359.00;218142;1289;161523;-88
2023/09/07 17:34:09;;;;;;;8.20;4.70;;;;;;;24.15;59.91;101359.61;218487;1288;139631;-88
2023/09/07 17:39:09;;;;;;;9.00;4.70;;;;;;;24.05;60.85;101361.61;217600;1289;142509;-88
2023/09/07 17:44:10;;;;;;;8.60;4.90;;;;;;;23.92;61.40;101358.35;218196;1288;138491;-87
2023/09/07 17:49:11;;;;;;;10.30;4.40;;;;;;;23.79;61.32;101361.52;217865;1288;141601;-88
2023/09/07 17:54:11;;;;;;;9.50;4.60;;;;;;;23.66;62.03;101366.88;218226;1288;138869;-87
2023/09/07 17:59:11;;;;;;;9.90;5.30;;;;;;;23.50;62.09;101364.27;217840;1289;139655;-89
2023/09/07 18:04:12;;;;;;;10.50;4.90;;;;;;;23.33;62.32;101365.52;218291;1288;139158;-89
2023/09/07 18:09:12;;;;;;;8.60;4.70;;;;;;;23.15;62.95;101367.91;217850;1288;140339;-89
2023/09/07 18:14:16;;;;;;;8.80;4.60;;;;;;;23.00;63.56;101369.48;218223;1289;139124;-90
2023/09/07 18:19:17;;;;;;;10.60;5.20;;;;;;;22.90;64.30;101366.92;218001;1288;139544;-88
2023/09/07 18:24:20;;;;;;;10.40;5.40;;;;;;;22.81;64.64;101370.02;218239;1288;139486;-88
2023/09/07 18:29:21;;;;;;;14.20;6.00;;;;;;;22.77;65.34;101374.93;217701;1288;140055;-89
2023/09/07 18:34:21;;;;;;;10.80;5.80;;;;;;;22.70;65.75;101378.77;218434;1288;138966;-90
2023/09/07 18:39:22;;;;;;;14.10;5.70;;;;;;;22.62;66.31;101379.95;217788;1288;141942;-89
2023/09/07 18:44:22;;;;;;;11.30;5.40;;;;;;;22.56;66.61;101384.34;218414;1288;139395;-89
2023/09/07 18:49:24;;;;;;;11.50;6.20;;;;;;;22.50;66.76;101386.73;217740;1288;141638;-90
2023/09/07 18:54:25;;;;;;;13.90;6.20;;;;;;;22.44;67.20;101388.34;218286;1288;138514;-89
2023/09/07 18:59:25;;;;;;;13.00;6.30;;;;;;;22.38;67.73;101390.09;217736;1288;140412;-90
2023/09/07 19:04:28;;;;;;;13.80;6.00;;;;;;;22.32;67.78;101392.37;218561;1288;139630;-90
2023/09/07 19:09:28;;;;;;;10.00;5.20;;;;;;;22.25;68.24;101388.84;217799;1288;161750;-90
2023/09/07 19:14:29;;;;;;;10.20;5.70;;;;;;;22.19;68.32;101389.06;218476;1288;138402;-90
2023/09/07 19:19:30;;;;;;;12.90;6.00;;;;;;;22.13;68.22;101386.85;217971;1288;140046;-90
2023/09/07 19:24:30;;;;;;;10.30;5.80;;;;;;;22.08;68.76;101384.95;218235;1289;139632;-90
2023/09/07 19:29:31;;;;;;;10.20;6.20;;;;;;;22.03;68.81;101388.12;217834;1288;142080;-90
2023/09/07 19:34:31;;;;;;;15.50;6.60;;;;;;;21.97;69.28;101387.03;218787;1288;137210;-89
2023/09/07 19:39:31;;;;;;;13.10;6.40;;;;;;;21.91;69.57;101385.96;217717;1288;141325;-89
2023/09/07 19:44:32;;;;;;;14.00;6.30;;;;;;;21.84;69.91;101386.27;217970;1288;139397;-90
2023/09/07 19:49:33;;;;;;;13.30;6.40;;;;;;;21.76;69.90;101387.68;217760;1288;141103;-89
2023/09/07 19:54:46;;;;;;;13.50;6.60;;;;;;;21.68;70.96;101382.95;218241;1288;138346;-90
2023/09/07 19:59:50;;;;;;;15.00;7.00;;;;;;;21.56;71.90;101383.41;217702;1289;141047;-89
2023/09/07 20:04:51;;;;;;;14.20;6.80;;;;;;;21.42;72.45;101383.51;218216;1288;138784;-89
2023/09/07 20:09:51;;;;;;;14.00;7.80;;;;;;;21.30;73.47;101389.89;217824;1288;140205;-89
2023/09/07 20:14:52;;;;;;;11.00;6.80;;;;;;;21.19;73.41;101389.03;218132;1288;138454;-89
2023/09/07 20:19:53;;;;;;;12.40;7.10;;;;;;;21.11;73.89;101386.20;217849;1289;141649;-89
2023/09/07 20:24:55;;;;;;;12.40;8.00;;;;;;;21.03;74.21;101386.41;218455;1288;138857;-89
2023/09/07 20:29:56;;;;;;;14.90;8.10;;;;;;;20.95;74.34;101384.73;217842;1289;141952;-89
2023/09/07 20:34:56;;;;;;;16.50;8.00;;;;;;;20.86;74.46;101385.48;218502;1289;139741;-88
2023/09/07 20:39:56;;;;;;;14.70;8.30;;;;;;;20.79;74.80;101389.18;217801;1288;141755;-89
2023/09/07 20:44:57;;;;;;;16.00;8.80;;;;;;;20.70;75.17;101386.85;218162;1289;141090;-89
2023/09/07 20:49:58;;;;;;;16.80;8.20;;;;;;;20.62;75.61;101379.84;218714;1292;140625;-88
2023/09/07 20:54:59;;;;;;;14.70;8.10;;;;;;;20.55;75.91;101381.00;218108;1288;139499;-89
2023/09/07 21:00:00;;;;;;;13.10;8.00;;;;;;;20.47;76.55;101385.73;217618;1288;140560;-89
2023/09/07 21:05:01;;;;;;;19.30;7.70;;;;;;;20.38;77.22;101390.11;218311;1289;139593;-89
2023/09/07 21:10:01;;;;;;;14.10;8.10;;;;;;;20.29;77.51;101386.64;218043;1289;141482;-91
2023/09/07 21:15:03;;;;;;;16.50;7.80;;;;;;;20.19;78.08;101387.55;218937;1290;139067;-90
2023/09/07 21:20:05;;;;;;;13.50;7.60;;;;;;;20.10;78.59;101385.18;217796;1288;142631;-89
2023/09/07 21:25:07;;;;;;;13.80;8.80;;;;;;;20.02;78.77;101387.66;218341;1291;96002;-89
2023/09/07 21:30:08;;;;;;;14.50;8.60;;;;;;;19.93;79.32;101391.38;217776;1288;141190;-89
2023/09/07 21:35:08;;;;;;;16.40;9.60;;;;;;;19.83;79.75;101392.12;218259;1288;139863;-90
2023/09/07 21:40:09;;;;;;;13.00;8.60;;;;;;;19.75;80.35;101392.61;217750;1288;141236;-89
2023/09/07 21:45:10;;;;;;;15.20;9.30;;;;;;;19.64;81.03;101391.13;218153;1288;139043;-89
2023/09/07 21:50:10;;;;;;;13.60;10.00;;;;;;;19.54;81.52;101391.56;217604;1288;142056;-89
2023/09/07 21:55:11;;;;;;;17.00;9.20;;;;;;;19.46;82.42;101393.48;218383;1288;96077;-88
2023/09/07 22:00:11;;;;;;;18.60;11.30;;;;;;;19.38;82.43;101395.80;217766;1290;141919;-88
2023/09/07 22:05:12;;;;;;;16.00;9.70;;;;;;;19.30;82.34;101394.52;218280;1290;139301;-89
2023/09/07 22:10:13;;;;;;;14.80;9.90;;;;;;;19.23;82.68;101392.26;217715;1291;140952;-89
2023/09/07 22:15:13;;;;;;;17.10;10.80;;;;;;;19.15;82.88;101393.01;218257;1288;138972;-89
2023/09/07 22:20:15;;;;;;;14.30;9.50;;;;;;;19.10;83.30;101396.73;217697;1288;141503;-88
2023/09/07 22:25:15;;;;;;;17.30;10.30;;;;;;;19.04;83.83;101394.70;218249;1288;96426;-90
2023/09/07 22:30:16;;;;;;;16.70;10.80;;;;;;;18.97;84.46;101397.95;217786;1288;140938;-89